sensor_id;sensor_type;location;lat;lon;timestamp;P1;durP1;ratioP1;P2;durP2;ratioP2
35056;SDS011;21241;51.828;19.574;2023-03-14T00:02:15;4.80;;;4.40;;
35056;SDS011;21241;51.828;19.574;2023-03-14T00:04:43;4.80;;;4.30;;
35056;SDS011;21241;51.828;19.574;2023-03-14T00:07:11;4.90;;;4.50;;
35056;SDS011;21241;51.828;19.574;2023-03-14T00:09:40;5.30;;;4.80;;
35056;SDS011;21241;51.828;19.574;2023-03-14T00:12:08;4.50;;;4.10;;
35056;SDS011;21241;51.828;19.574;2023-03-14T00:14:36;4.80;;;4.30;;
35056;SDS011;21241;51.828;19.574;2023-03-14T00:17:03;4.70;;;4.20;;
35056;SDS011;21241;51.828;19.574;2023-03-14T00:19:31;4.90;;;3.90;;
35056;SDS011;21241;51.828;19.574;2023-03-14T00:21:59;5.40;;;4.30;;
35056;SDS011;21241;51.828;19.574;2023-03-14T00:24:26;4.50;;;4.10;;
35056;SDS011;21241;51.828;19.574;2023-03-14T00:26:54;5.30;;;4.20;;
35056;SDS011;21241;51.828;19.574;2023-03-14T00:29:23;4.40;;;3.80;;
35056;SDS011;21241;51.828;19.574;2023-03-14T00:31:50;5.70;;;4.00;;
35056;SDS011;21241;51.828;19.574;2023-03-14T00:34:18;4.30;;;3.90;;
35056;SDS011;21241;51.828;19.574;2023-03-14T00:36:46;4.70;;;3.90;;
35056;SDS011;21241;51.828;19.574;2023-03-14T00:39:14;4.50;;;4.10;;
35056;SDS011;21241;51.828;19.574;2023-03-14T00:41:41;4.50;;;4.10;;
35056;SDS011;21241;51.828;19.574;2023-03-14T00:44:09;4.50;;;3.70;;
35056;SDS011;21241;51.828;19.574;2023-03-14T00:46:37;4.50;;;3.90;;
35056;SDS011;21241;51.828;19.574;2023-03-14T00:49:07;4.10;;;3.70;;
35056;SDS011;21241;51.828;19.574;2023-03-14T00:51:34;4.40;;;4.00;;
35056;SDS011;21241;51.828;19.574;2023-03-14T00:54:02;4.50;;;3.30;;
35056;SDS011;21241;51.828;19.574;2023-03-14T00:56:30;4.30;;;3.90;;
35056;SDS011;21241;51.828;19.574;2023-03-14T00:58:58;4.40;;;3.90;;
35056;SDS011;21241;51.828;19.574;2023-03-14T01:01:26;4.20;;;3.90;;
35056;SDS011;21241;51.828;19.574;2023-03-14T01:03:54;4.30;;;3.90;;
35056;SDS011;21241;51.828;19.574;2023-03-14T01:06:23;4.20;;;3.80;;
35056;SDS011;21241;51.828;19.574;2023-03-14T01:08:53;5.00;;;3.70;;
35056;SDS011;21241;51.828;19.574;2023-03-14T01:11:22;4.00;;;3.70;;
35056;SDS011;21241;51.828;19.574;2023-03-14T01:13:52;5.30;;;3.70;;
35056;SDS011;21241;51.828;19.574;2023-03-14T01:16:21;4.60;;;3.70;;
35056;SDS011;21241;51.828;19.574;2023-03-14T01:18:49;4.90;;;4.40;;
35056;SDS011;21241;51.828;19.574;2023-03-14T01:21:19;3.80;;;3.50;;
35056;SDS011;21241;51.828;19.574;2023-03-14T01:23:49;4.00;;;3.60;;
35056;SDS011;21241;51.828;19.574;2023-03-14T01:26:19;3.60;;;3.30;;
35056;SDS011;21241;51.828;19.574;2023-03-14T01:28:50;3.90;;;3.40;;
35056;SDS011;21241;51.828;19.574;2023-03-14T01:31:19;3.90;;;3.60;;
35056;SDS011;21241;51.828;19.574;2023-03-14T01:33:47;4.00;;;3.50;;
35056;SDS011;21241;51.828;19.574;2023-03-14T01:36:15;3.90;;;3.50;;
35056;SDS011;21241;51.828;19.574;2023-03-14T01:38:44;4.80;;;3.60;;
35056;SDS011;21241;51.828;19.574;2023-03-14T01:41:17;4.00;;;3.60;;
35056;SDS011;21241;51.828;19.574;2023-03-14T01:43:47;5.70;;;3.70;;
35056;SDS011;21241;51.828;19.574;2023-03-14T01:46:23;4.70;;;3.70;;
35056;SDS011;21241;51.828;19.574;2023-03-14T01:48:55;5.00;;;3.90;;
35056;SDS011;21241;51.828;19.574;2023-03-14T01:51:26;4.30;;;3.90;;
35056;SDS011;21241;51.828;19.574;2023-03-14T01:54:04;4.40;;;4.00;;
35056;SDS011;21241;51.828;19.574;2023-03-14T01:56:35;4.10;;;3.80;;
35056;SDS011;21241;51.828;19.574;2023-03-14T01:59:04;4.70;;;3.60;;
35056;SDS011;21241;51.828;19.574;2023-03-14T02:01:34;4.40;;;4.00;;
35056;SDS011;21241;51.828;19.574;2023-03-14T02:04:04;5.10;;;4.70;;
35056;SDS011;21241;51.828;19.574;2023-03-14T02:09:19;4.40;;;4.00;;
35056;SDS011;21241;51.828;19.574;2023-03-14T02:11:48;5.50;;;4.90;;
35056;SDS011;21241;51.828;19.574;2023-03-14T02:14:35;6.10;;;5.10;;
35056;SDS011;21241;51.828;19.574;2023-03-14T02:17:21;8.20;;;7.40;;
35056;SDS011;21241;51.828;19.574;2023-03-14T02:22:44;8.20;;;7.40;;
35056;SDS011;21241;51.828;19.574;2023-03-14T02:25:14;7.80;;;7.00;;
35056;SDS011;21241;51.828;19.574;2023-03-14T02:28:07;8.90;;;8.00;;
35056;SDS011;21241;51.828;19.574;2023-03-14T02:30:36;9.50;;;8.60;;
35056;SDS011;21241;51.828;19.574;2023-03-14T02:33:06;10.50;;;9.50;;
35056;SDS011;21241;51.828;19.574;2023-03-14T02:35:37;10.40;;;9.40;;
35056;SDS011;21241;51.828;19.574;2023-03-14T02:41:11;12.40;;;11.20;;
35056;SDS011;21241;51.828;19.574;2023-03-14T02:43:43;12.40;;;11.20;;
35056;SDS011;21241;51.828;19.574;2023-03-14T02:46:12;13.40;;;12.20;;
35056;SDS011;21241;51.828;19.574;2023-03-14T02:48:55;14.40;;;13.10;;
35056;SDS011;21241;51.828;19.574;2023-03-14T02:51:25;14.40;;;13.00;;
35056;SDS011;21241;51.828;19.574;2023-03-14T02:53:53;13.40;;;12.10;;
35056;SDS011;21241;51.828;19.574;2023-03-14T02:56:22;15.70;;;14.10;;
35056;SDS011;21241;51.828;19.574;2023-03-14T02:58:50;14.90;;;13.60;;
35056;SDS011;21241;51.828;19.574;2023-03-14T03:01:24;14.90;;;13.40;;
35056;SDS011;21241;51.828;19.574;2023-03-14T03:03:52;15.80;;;14.30;;
35056;SDS011;21241;51.828;19.574;2023-03-14T03:06:20;16.20;;;14.60;;
35056;SDS011;21241;51.828;19.574;2023-03-14T03:08:48;18.00;;;16.20;;
35056;SDS011;21241;51.828;19.574;2023-03-14T03:11:16;14.50;;;13.20;;
35056;SDS011;21241;51.828;19.574;2023-03-14T03:13:43;15.60;;;14.10;;
35056;SDS011;21241;51.828;19.574;2023-03-14T03:16:12;15.60;;;14.20;;
35056;SDS011;21241;51.828;19.574;2023-03-14T03:18:42;14.50;;;13.20;;
35056;SDS011;21241;51.828;19.574;2023-03-14T03:21:10;14.90;;;13.40;;
35056;SDS011;21241;51.828;19.574;2023-03-14T03:23:37;13.20;;;11.90;;
35056;SDS011;21241;51.828;19.574;2023-03-14T03:26:05;13.60;;;12.20;;
35056;SDS011;21241;51.828;19.574;2023-03-14T03:28:33;12.30;;;11.20;;
35056;SDS011;21241;51.828;19.574;2023-03-14T03:31:10;12.60;;;11.40;;
35056;SDS011;21241;51.828;19.574;2023-03-14T03:33:39;12.80;;;11.40;;
35056;SDS011;21241;51.828;19.574;2023-03-14T03:36:07;11.70;;;10.50;;
35056;SDS011;21241;51.828;19.574;2023-03-14T03:38:37;10.90;;;9.90;;
35056;SDS011;21241;51.828;19.574;2023-03-14T03:41:06;11.30;;;10.20;;
35056;SDS011;21241;51.828;19.574;2023-03-14T03:43:35;10.90;;;9.80;;
35056;SDS011;21241;51.828;19.574;2023-03-14T03:46:04;10.80;;;9.80;;
35056;SDS011;21241;51.828;19.574;2023-03-14T03:48:33;10.70;;;9.60;;
35056;SDS011;21241;51.828;19.574;2023-03-14T03:51:03;9.70;;;8.90;;
35056;SDS011;21241;51.828;19.574;2023-03-14T03:53:31;9.10;;;8.20;;
35056;SDS011;21241;51.828;19.574;2023-03-14T03:56:12;9.80;;;8.80;;
35056;SDS011;21241;51.828;19.574;2023-03-14T03:58:40;10.40;;;9.30;;
35056;SDS011;21241;51.828;19.574;2023-03-14T04:01:09;9.80;;;9.00;;
35056;SDS011;21241;51.828;19.574;2023-03-14T04:03:39;9.10;;;8.20;;
35056;SDS011;21241;51.828;19.574;2023-03-14T04:06:08;10.20;;;9.00;;
35056;SDS011;21241;51.828;19.574;2023-03-14T04:08:39;9.50;;;8.50;;
35056;SDS011;21241;51.828;19.574;2023-03-14T04:11:11;10.10;;;9.10;;
35056;SDS011;21241;51.828;19.574;2023-03-14T04:13:54;9.30;;;8.40;;
35056;SDS011;21241;51.828;19.574;2023-03-14T04:16:25;10.10;;;9.10;;
35056;SDS011;21241;51.828;19.574;2023-03-14T04:19:00;9.60;;;8.70;;
35056;SDS011;21241;51.828;19.574;2023-03-14T04:21:28;9.50;;;8.60;;
35056;SDS011;21241;51.828;19.574;2023-03-14T04:23:57;9.80;;;8.90;;
35056;SDS011;21241;51.828;19.574;2023-03-14T04:26:29;10.70;;;9.70;;
35056;SDS011;21241;51.828;19.574;2023-03-14T04:28:57;10.40;;;9.40;;
35056;SDS011;21241;51.828;19.574;2023-03-14T04:31:25;10.10;;;9.20;;
35056;SDS011;21241;51.828;19.574;2023-03-14T04:33:53;10.50;;;9.50;;
35056;SDS011;21241;51.828;19.574;2023-03-14T04:36:28;10.10;;;9.20;;
35056;SDS011;21241;51.828;19.574;2023-03-14T04:38:58;9.90;;;9.10;;
35056;SDS011;21241;51.828;19.574;2023-03-14T04:41:26;10.30;;;9.30;;
35056;SDS011;21241;51.828;19.574;2023-03-14T04:43:54;10.80;;;9.80;;
35056;SDS011;21241;51.828;19.574;2023-03-14T04:46:22;10.60;;;9.70;;
35056;SDS011;21241;51.828;19.574;2023-03-14T04:48:50;11.00;;;10.00;;
35056;SDS011;21241;51.828;19.574;2023-03-14T04:51:19;11.10;;;10.00;;
35056;SDS011;21241;51.828;19.574;2023-03-14T04:53:46;11.80;;;10.80;;
35056;SDS011;21241;51.828;19.574;2023-03-14T04:56:14;10.80;;;9.60;;
35056;SDS011;21241;51.828;19.574;2023-03-14T04:58:43;11.00;;;10.10;;
35056;SDS011;21241;51.828;19.574;2023-03-14T05:01:15;10.20;;;9.30;;
35056;SDS011;21241;51.828;19.574;2023-03-14T05:04:13;10.60;;;9.80;;
35056;SDS011;21241;51.828;19.574;2023-03-14T05:07:03;11.50;;;10.40;;
35056;SDS011;21241;51.828;19.574;2023-03-14T05:09:46;11.10;;;10.10;;
35056;SDS011;21241;51.828;19.574;2023-03-14T05:12:25;11.50;;;10.50;;
35056;SDS011;21241;51.828;19.574;2023-03-14T05:14:53;11.40;;;10.40;;
35056;SDS011;21241;51.828;19.574;2023-03-14T05:17:43;10.70;;;9.80;;
35056;SDS011;21241;51.828;19.574;2023-03-14T05:20:27;10.40;;;9.40;;
35056;SDS011;21241;51.828;19.574;2023-03-14T05:23:17;11.30;;;10.30;;
35056;SDS011;21241;51.828;19.574;2023-03-14T05:26:12;10.50;;;9.60;;
35056;SDS011;21241;51.828;19.574;2023-03-14T05:28:57;10.50;;;9.50;;
35056;SDS011;21241;51.828;19.574;2023-03-14T05:31:38;10.60;;;9.60;;
35056;SDS011;21241;51.828;19.574;2023-03-14T05:34:25;10.80;;;9.90;;
35056;SDS011;21241;51.828;19.574;2023-03-14T05:37:22;11.50;;;10.50;;
35056;SDS011;21241;51.828;19.574;2023-03-14T05:40:14;10.60;;;9.60;;
35056;SDS011;21241;51.828;19.574;2023-03-14T05:43:06;9.70;;;8.90;;
35056;SDS011;21241;51.828;19.574;2023-03-14T05:45:58;10.40;;;9.40;;
35056;SDS011;21241;51.828;19.574;2023-03-14T05:48:44;10.30;;;9.30;;
35056;SDS011;21241;51.828;19.574;2023-03-14T05:51:25;10.10;;;9.10;;
35056;SDS011;21241;51.828;19.574;2023-03-14T05:54:19;9.70;;;8.80;;
35056;SDS011;21241;51.828;19.574;2023-03-14T05:57:09;10.00;;;9.10;;
35056;SDS011;21241;51.828;19.574;2023-03-14T05:59:46;10.40;;;9.40;;
35056;SDS011;21241;51.828;19.574;2023-03-14T06:02:50;9.80;;;8.90;;
35056;SDS011;21241;51.828;19.574;2023-03-14T06:05:21;9.80;;;8.90;;
35056;SDS011;21241;51.828;19.574;2023-03-14T06:07:51;9.00;;;8.20;;
35056;SDS011;21241;51.828;19.574;2023-03-14T06:10:18;9.60;;;8.70;;
35056;SDS011;21241;51.828;19.574;2023-03-14T06:12:46;9.30;;;8.40;;
35056;SDS011;21241;51.828;19.574;2023-03-14T06:15:15;9.20;;;7.90;;
35056;SDS011;21241;51.828;19.574;2023-03-14T06:17:43;8.80;;;7.60;;
35056;SDS011;21241;51.828;19.574;2023-03-14T06:20:12;9.70;;;8.80;;
35056;SDS011;21241;51.828;19.574;2023-03-14T06:22:40;10.00;;;9.00;;
35056;SDS011;21241;51.828;19.574;2023-03-14T06:25:09;9.80;;;8.90;;
35056;SDS011;21241;51.828;19.574;2023-03-14T06:27:37;9.10;;;8.30;;
35056;SDS011;21241;51.828;19.574;2023-03-14T06:30:05;8.80;;;8.00;;
35056;SDS011;21241;51.828;19.574;2023-03-14T06:32:35;9.10;;;8.20;;
35056;SDS011;21241;51.828;19.574;2023-03-14T06:35:06;7.80;;;7.10;;
35056;SDS011;21241;51.828;19.574;2023-03-14T06:37:36;8.20;;;7.40;;
35056;SDS011;21241;51.828;19.574;2023-03-14T06:40:05;7.70;;;7.00;;
35056;SDS011;21241;51.828;19.574;2023-03-14T06:42:54;7.60;;;6.80;;
35056;SDS011;21241;51.828;19.574;2023-03-14T06:45:23;7.70;;;6.70;;
35056;SDS011;21241;51.828;19.574;2023-03-14T06:47:51;8.50;;;7.20;;
35056;SDS011;21241;51.828;19.574;2023-03-14T06:50:21;7.10;;;6.40;;
35056;SDS011;21241;51.828;19.574;2023-03-14T06:52:50;7.50;;;6.80;;
35056;SDS011;21241;51.828;19.574;2023-03-14T06:55:21;7.30;;;6.60;;
35056;SDS011;21241;51.828;19.574;2023-03-14T06:57:49;6.90;;;6.20;;
35056;SDS011;21241;51.828;19.574;2023-03-14T07:00:17;6.20;;;5.60;;
35056;SDS011;21241;51.828;19.574;2023-03-14T07:02:45;6.90;;;5.90;;
35056;SDS011;21241;51.828;19.574;2023-03-14T07:05:23;7.70;;;5.60;;
35056;SDS011;21241;51.828;19.574;2023-03-14T07:07:51;7.50;;;5.10;;
35056;SDS011;21241;51.828;19.574;2023-03-14T07:10:18;5.90;;;5.20;;
35056;SDS011;21241;51.828;19.574;2023-03-14T07:12:46;5.40;;;4.70;;
35056;SDS011;21241;51.828;19.574;2023-03-14T07:15:14;7.20;;;5.00;;
35056;SDS011;21241;51.828;19.574;2023-03-14T07:17:47;5.10;;;4.60;;
35056;SDS011;21241;51.828;19.574;2023-03-14T07:20:19;5.20;;;4.70;;
35056;SDS011;21241;51.828;19.574;2023-03-14T07:22:47;7.20;;;4.70;;
35056;SDS011;21241;51.828;19.574;2023-03-14T07:25:17;6.20;;;4.10;;
35056;SDS011;21241;51.828;19.574;2023-03-14T07:27:45;4.30;;;4.00;;
35056;SDS011;21241;51.828;19.574;2023-03-14T07:30:15;4.90;;;4.10;;
35056;SDS011;21241;51.828;19.574;2023-03-14T07:32:43;4.80;;;4.20;;
35056;SDS011;21241;51.828;19.574;2023-03-14T07:35:11;4.50;;;4.10;;
35056;SDS011;21241;51.828;19.574;2023-03-14T07:37:39;4.40;;;4.00;;
35056;SDS011;21241;51.828;19.574;2023-03-14T07:40:07;4.40;;;4.00;;
35056;SDS011;21241;51.828;19.574;2023-03-14T07:42:38;4.40;;;4.00;;
35056;SDS011;21241;51.828;19.574;2023-03-14T07:45:16;6.70;;;4.50;;
35056;SDS011;21241;51.828;19.574;2023-03-14T07:47:44;7.30;;;6.70;;
35056;SDS011;21241;51.828;19.574;2023-03-14T07:50:12;7.20;;;6.50;;
35056;SDS011;21241;51.828;19.574;2023-03-14T07:52:39;4.80;;;4.30;;
35056;SDS011;21241;51.828;19.574;2023-03-14T07:55:07;4.70;;;4.30;;
35056;SDS011;21241;51.828;19.574;2023-03-14T07:57:35;4.80;;;4.30;;
35056;SDS011;21241;51.828;19.574;2023-03-14T08:00:03;5.00;;;4.60;;
35056;SDS011;21241;51.828;19.574;2023-03-14T08:02:40;5.30;;;4.80;;
35056;SDS011;21241;51.828;19.574;2023-03-14T08:05:08;6.60;;;5.10;;
35056;SDS011;21241;51.828;19.574;2023-03-14T08:07:36;5.60;;;5.00;;
35056;SDS011;21241;51.828;19.574;2023-03-14T08:10:04;5.30;;;4.80;;
35056;SDS011;21241;51.828;19.574;2023-03-14T08:12:33;7.90;;;5.50;;
35056;SDS011;21241;51.828;19.574;2023-03-14T08:15:03;5.30;;;4.80;;
35056;SDS011;21241;51.828;19.574;2023-03-14T08:17:32;5.80;;;4.90;;
35056;SDS011;21241;51.828;19.574;2023-03-14T08:19:59;5.60;;;5.10;;
35056;SDS011;21241;51.828;19.574;2023-03-14T08:22:27;6.00;;;5.10;;
35056;SDS011;21241;51.828;19.574;2023-03-14T08:24:54;5.70;;;5.20;;
35056;SDS011;21241;51.828;19.574;2023-03-14T08:27:22;6.00;;;5.40;;
35056;SDS011;21241;51.828;19.574;2023-03-14T08:29:50;8.10;;;7.30;;
35056;SDS011;21241;51.828;19.574;2023-03-14T08:32:17;5.80;;;5.20;;
35056;SDS011;21241;51.828;19.574;2023-03-14T08:34:47;6.90;;;4.90;;
35056;SDS011;21241;51.828;19.574;2023-03-14T08:37:15;5.50;;;5.00;;
35056;SDS011;21241;51.828;19.574;2023-03-14T08:39:53;5.70;;;5.10;;
35056;SDS011;21241;51.828;19.574;2023-03-14T08:42:21;5.80;;;5.20;;
35056;SDS011;21241;51.828;19.574;2023-03-14T08:44:50;6.20;;;5.60;;
35056;SDS011;21241;51.828;19.574;2023-03-14T08:47:18;5.80;;;5.30;;
35056;SDS011;21241;51.828;19.574;2023-03-14T08:49:46;5.60;;;5.10;;
35056;SDS011;21241;51.828;19.574;2023-03-14T08:52:14;6.60;;;6.00;;
35056;SDS011;21241;51.828;19.574;2023-03-14T08:54:43;5.70;;;5.10;;
35056;SDS011;21241;51.828;19.574;2023-03-14T08:57:11;5.70;;;5.10;;
35056;SDS011;21241;51.828;19.574;2023-03-14T08:59:39;5.50;;;4.80;;
35056;SDS011;21241;51.828;19.574;2023-03-14T09:02:09;5.80;;;5.20;;
35056;SDS011;21241;51.828;19.574;2023-03-14T09:04:40;5.50;;;5.00;;
35056;SDS011;21241;51.828;19.574;2023-03-14T09:07:07;6.10;;;5.50;;
35056;SDS011;21241;51.828;19.574;2023-03-14T09:09:36;6.00;;;5.50;;
35056;SDS011;21241;51.828;19.574;2023-03-14T09:12:03;5.30;;;4.80;;
35056;SDS011;21241;51.828;19.574;2023-03-14T09:14:32;6.50;;;5.40;;
35056;SDS011;21241;51.828;19.574;2023-03-14T09:17:00;6.20;;;5.70;;
35056;SDS011;21241;51.828;19.574;2023-03-14T09:19:27;5.30;;;4.80;;
35056;SDS011;21241;51.828;19.574;2023-03-14T09:21:55;5.50;;;5.00;;
35056;SDS011;21241;51.828;19.574;2023-03-14T09:24:23;6.00;;;5.20;;
35056;SDS011;21241;51.828;19.574;2023-03-14T09:26:50;5.50;;;5.00;;
35056;SDS011;21241;51.828;19.574;2023-03-14T09:29:18;5.50;;;5.00;;
35056;SDS011;21241;51.828;19.574;2023-03-14T09:31:47;5.30;;;4.70;;
35056;SDS011;21241;51.828;19.574;2023-03-14T09:34:15;6.60;;;5.40;;
35056;SDS011;21241;51.828;19.574;2023-03-14T09:36:43;5.60;;;5.10;;
35056;SDS011;21241;51.828;19.574;2023-03-14T09:39:11;5.10;;;4.50;;
35056;SDS011;21241;51.828;19.574;2023-03-14T09:41:40;4.90;;;4.50;;
35056;SDS011;21241;51.828;19.574;2023-03-14T09:44:17;7.10;;;5.50;;
35056;SDS011;21241;51.828;19.574;2023-03-14T09:46:50;5.00;;;4.60;;
35056;SDS011;21241;51.828;19.574;2023-03-14T09:51:58;5.50;;;4.90;;
35056;SDS011;21241;51.828;19.574;2023-03-14T09:54:44;6.30;;;5.60;;
35056;SDS011;21241;51.828;19.574;2023-03-14T09:57:16;5.10;;;4.60;;
35056;SDS011;21241;51.828;19.574;2023-03-14T09:59:46;6.50;;;4.60;;
35056;SDS011;21241;51.828;19.574;2023-03-14T10:02:17;5.30;;;4.80;;
35056;SDS011;21241;51.828;19.574;2023-03-14T10:04:47;4.80;;;4.40;;
35056;SDS011;21241;51.828;19.574;2023-03-14T10:07:18;4.60;;;4.20;;
35056;SDS011;21241;51.828;19.574;2023-03-14T10:09:56;4.40;;;4.00;;
35056;SDS011;21241;51.828;19.574;2023-03-14T10:12:59;4.70;;;4.20;;
35056;SDS011;21241;51.828;19.574;2023-03-14T10:15:28;6.30;;;4.10;;
35056;SDS011;21241;51.828;19.574;2023-03-14T10:18:01;4.60;;;4.20;;
35056;SDS011;21241;51.828;19.574;2023-03-14T10:20:34;4.70;;;4.20;;
35056;SDS011;21241;51.828;19.574;2023-03-14T10:25:39;7.30;;;5.10;;
35056;SDS011;21241;51.828;19.574;2023-03-14T10:30:54;4.90;;;4.50;;
35056;SDS011;21241;51.828;19.574;2023-03-14T10:33:23;5.90;;;5.30;;
35056;SDS011;21241;51.828;19.574;2023-03-14T10:38:41;6.20;;;5.40;;
35056;SDS011;21241;51.828;19.574;2023-03-14T10:41:43;5.20;;;4.60;;
35056;SDS011;21241;51.828;19.574;2023-03-14T10:44:03;5.10;;;4.70;;
35056;SDS011;21241;51.828;19.574;2023-03-14T10:46:31;5.10;;;4.60;;
35056;SDS011;21241;51.828;19.574;2023-03-14T10:49:25;5.10;;;4.70;;
35056;SDS011;21241;51.828;19.574;2023-03-14T10:51:55;5.30;;;4.80;;
35056;SDS011;21241;51.828;19.574;2023-03-14T10:54:30;6.30;;;5.10;;
35056;SDS011;21241;51.828;19.574;2023-03-14T10:56:59;5.90;;;4.90;;
35056;SDS011;21241;51.828;19.574;2023-03-14T10:59:29;5.30;;;4.80;;
35056;SDS011;21241;51.828;19.574;2023-03-14T11:02:04;5.90;;;5.40;;
35056;SDS011;21241;51.828;19.574;2023-03-14T11:07:43;5.10;;;4.60;;
35056;SDS011;21241;51.828;19.574;2023-03-14T11:23:42;5.50;;;4.90;;
35056;SDS011;21241;51.828;19.574;2023-03-14T11:26:32;6.60;;;5.50;;
35056;SDS011;21241;51.828;19.574;2023-03-14T11:29:08;5.90;;;5.10;;
35056;SDS011;21241;51.828;19.574;2023-03-14T11:31:44;5.50;;;4.90;;
35056;SDS011;21241;51.828;19.574;2023-03-14T11:36:51;6.10;;;5.60;;
35056;SDS011;21241;51.828;19.574;2023-03-14T11:39:22;6.70;;;6.10;;
35056;SDS011;21241;51.828;19.574;2023-03-14T11:41:55;6.90;;;6.30;;
35056;SDS011;21241;51.828;19.574;2023-03-14T11:44:26;7.00;;;6.30;;
35056;SDS011;21241;51.828;19.574;2023-03-14T11:47:15;6.70;;;6.00;;
35056;SDS011;21241;51.828;19.574;2023-03-14T11:50:04;6.80;;;6.20;;
35056;SDS011;21241;51.828;19.574;2023-03-14T11:52:36;6.00;;;5.40;;
35056;SDS011;21241;51.828;19.574;2023-03-14T11:57:45;5.90;;;5.30;;
35056;SDS011;21241;51.828;19.574;2023-03-14T12:00:15;6.10;;;5.50;;
35056;SDS011;21241;51.828;19.574;2023-03-14T12:02:55;6.30;;;5.70;;
35056;SDS011;21241;51.828;19.574;2023-03-14T12:10:37;7.50;;;6.80;;
35056;SDS011;21241;51.828;19.574;2023-03-14T12:13:08;6.70;;;6.10;;
35056;SDS011;21241;51.828;19.574;2023-03-14T12:15:38;7.60;;;6.90;;
35056;SDS011;21241;51.828;19.574;2023-03-14T12:18:42;10.50;;;9.70;;
35056;SDS011;21241;51.828;19.574;2023-03-14T12:21:07;7.90;;;7.10;;
35056;SDS011;21241;51.828;19.574;2023-03-14T12:26:21;7.60;;;7.00;;
35056;SDS011;21241;51.828;19.574;2023-03-14T12:28:52;7.80;;;7.20;;
35056;SDS011;21241;51.828;19.574;2023-03-14T12:31:41;8.90;;;8.00;;
35056;SDS011;21241;51.828;19.574;2023-03-14T12:39:19;8.80;;;8.10;;
35056;SDS011;21241;51.828;19.574;2023-03-14T12:42:02;8.70;;;8.00;;
35056;SDS011;21241;51.828;19.574;2023-03-14T12:47:48;11.00;;;10.20;;
35056;SDS011;21241;51.828;19.574;2023-03-14T12:49:47;10.10;;;9.10;;
35056;SDS011;21241;51.828;19.574;2023-03-14T12:52:21;9.70;;;8.90;;
35056;SDS011;21241;51.828;19.574;2023-03-14T12:54:52;9.80;;;9.00;;
35056;SDS011;21241;51.828;19.574;2023-03-14T12:57:26;10.80;;;9.90;;
35056;SDS011;21241;51.828;19.574;2023-03-14T12:59:58;9.30;;;8.40;;
35056;SDS011;21241;51.828;19.574;2023-03-14T13:02:28;10.10;;;9.20;;
35056;SDS011;21241;51.828;19.574;2023-03-14T13:05:11;10.40;;;9.50;;
35056;SDS011;21241;51.828;19.574;2023-03-14T13:12:54;11.30;;;10.40;;
35056;SDS011;21241;51.828;19.574;2023-03-14T13:17:56;11.00;;;10.20;;
35056;SDS011;21241;51.828;19.574;2023-03-14T13:20:30;11.30;;;10.30;;
35056;SDS011;21241;51.828;19.574;2023-03-14T13:23:00;10.60;;;9.70;;
35056;SDS011;21241;51.828;19.574;2023-03-14T13:25:34;11.90;;;10.90;;
35056;SDS011;21241;51.828;19.574;2023-03-14T13:28:03;13.30;;;12.10;;
35056;SDS011;21241;51.828;19.574;2023-03-14T13:30:44;11.30;;;10.20;;
35056;SDS011;21241;51.828;19.574;2023-03-14T13:33:14;10.70;;;9.80;;
35056;SDS011;21241;51.828;19.574;2023-03-14T13:35:48;11.50;;;10.70;;
35056;SDS011;21241;51.828;19.574;2023-03-14T13:38:27;11.20;;;10.30;;
35056;SDS011;21241;51.828;19.574;2023-03-14T13:40:56;11.90;;;10.80;;
35056;SDS011;21241;51.828;19.574;2023-03-14T13:43:36;11.90;;;11.10;;
35056;SDS011;21241;51.828;19.574;2023-03-14T13:46:21;11.30;;;10.40;;
35056;SDS011;21241;51.828;19.574;2023-03-14T13:48:52;10.90;;;10.00;;
35056;SDS011;21241;51.828;19.574;2023-03-14T13:51:22;10.00;;;9.10;;
35056;SDS011;21241;51.828;19.574;2023-03-14T13:53:53;10.50;;;9.50;;
35056;SDS011;21241;51.828;19.574;2023-03-14T13:56:23;9.30;;;8.60;;
35056;SDS011;21241;51.828;19.574;2023-03-14T13:58:55;9.60;;;8.70;;
35056;SDS011;21241;51.828;19.574;2023-03-14T14:01:27;10.10;;;9.30;;
35056;SDS011;21241;51.828;19.574;2023-03-14T14:04:01;10.00;;;9.20;;
35056;SDS011;21241;51.828;19.574;2023-03-14T14:09:12;10.70;;;9.90;;
35056;SDS011;21241;51.828;19.574;2023-03-14T14:11:43;10.50;;;9.60;;
35056;SDS011;21241;51.828;19.574;2023-03-14T14:14:36;11.00;;;10.10;;
35056;SDS011;21241;51.828;19.574;2023-03-14T14:17:08;11.10;;;10.10;;
35056;SDS011;21241;51.828;19.574;2023-03-14T14:19:37;10.00;;;9.20;;
35056;SDS011;21241;51.828;19.574;2023-03-14T14:22:05;11.10;;;10.20;;
35056;SDS011;21241;51.828;19.574;2023-03-14T14:24:35;9.60;;;8.80;;
35056;SDS011;21241;51.828;19.574;2023-03-14T14:27:13;9.60;;;8.70;;
35056;SDS011;21241;51.828;19.574;2023-03-14T14:29:44;9.40;;;8.60;;
35056;SDS011;21241;51.828;19.574;2023-03-14T14:32:14;9.00;;;8.20;;
35056;SDS011;21241;51.828;19.574;2023-03-14T14:35:00;8.00;;;7.40;;
35056;SDS011;21241;51.828;19.574;2023-03-14T14:37:29;8.30;;;7.50;;
35056;SDS011;21241;51.828;19.574;2023-03-14T14:39:59;8.50;;;7.40;;
35056;SDS011;21241;51.828;19.574;2023-03-14T14:42:33;7.90;;;7.20;;
35056;SDS011;21241;51.828;19.574;2023-03-14T14:45:02;7.40;;;6.70;;
35056;SDS011;21241;51.828;19.574;2023-03-14T14:47:30;7.20;;;6.50;;
35056;SDS011;21241;51.828;19.574;2023-03-14T14:49:59;7.40;;;6.80;;
35056;SDS011;21241;51.828;19.574;2023-03-14T14:52:41;7.40;;;6.80;;
35056;SDS011;21241;51.828;19.574;2023-03-14T14:55:12;7.80;;;7.10;;
35056;SDS011;21241;51.828;19.574;2023-03-14T14:57:51;8.10;;;7.40;;
35056;SDS011;21241;51.828;19.574;2023-03-14T15:00:22;9.50;;;8.60;;
35056;SDS011;21241;51.828;19.574;2023-03-14T15:02:54;9.70;;;7.10;;
35056;SDS011;21241;51.828;19.574;2023-03-14T15:05:24;7.20;;;6.50;;
35056;SDS011;21241;51.828;19.574;2023-03-14T15:07:53;7.00;;;6.40;;
35056;SDS011;21241;51.828;19.574;2023-03-14T15:10:22;7.00;;;6.40;;
35056;SDS011;21241;51.828;19.574;2023-03-14T15:12:51;7.90;;;7.10;;
35056;SDS011;21241;51.828;19.574;2023-03-14T15:15:19;6.10;;;5.50;;
35056;SDS011;21241;51.828;19.574;2023-03-14T15:17:47;6.80;;;6.20;;
35056;SDS011;21241;51.828;19.574;2023-03-14T15:20:16;6.60;;;6.00;;
35056;SDS011;21241;51.828;19.574;2023-03-14T15:22:45;6.70;;;6.10;;
35056;SDS011;21241;51.828;19.574;2023-03-14T15:25:13;6.40;;;5.50;;
35056;SDS011;21241;51.828;19.574;2023-03-14T15:28:01;6.80;;;6.10;;
35056;SDS011;21241;51.828;19.574;2023-03-14T15:30:29;6.30;;;5.80;;
35056;SDS011;21241;51.828;19.574;2023-03-14T15:32:57;6.30;;;5.70;;
35056;SDS011;21241;51.828;19.574;2023-03-14T15:35:24;6.70;;;6.10;;
35056;SDS011;21241;51.828;19.574;2023-03-14T15:37:52;6.20;;;5.50;;
35056;SDS011;21241;51.828;19.574;2023-03-14T15:40:22;5.40;;;4.90;;
35056;SDS011;21241;51.828;19.574;2023-03-14T15:42:51;6.30;;;5.70;;
35056;SDS011;21241;51.828;19.574;2023-03-14T15:45:19;5.80;;;5.30;;
35056;SDS011;21241;51.828;19.574;2023-03-14T15:47:47;5.90;;;5.40;;
35056;SDS011;21241;51.828;19.574;2023-03-14T15:50:14;6.10;;;5.60;;
35056;SDS011;21241;51.828;19.574;2023-03-14T15:52:42;6.10;;;5.50;;
35056;SDS011;21241;51.828;19.574;2023-03-14T15:55:10;6.30;;;5.80;;
35056;SDS011;21241;51.828;19.574;2023-03-14T15:57:38;6.50;;;5.90;;
35056;SDS011;21241;51.828;19.574;2023-03-14T16:00:06;6.60;;;6.00;;
35056;SDS011;21241;51.828;19.574;2023-03-14T16:02:38;6.90;;;6.30;;
35056;SDS011;21241;51.828;19.574;2023-03-14T16:05:09;6.90;;;6.30;;